createdAt,value
2023-02-17T00:05:27.547Z,6.88
2023-02-17T00:11:29.765Z,6.98
2023-02-17T00:17:32.841Z,7.08
2023-02-17T00:23:35.272Z,7.16
2023-02-17T00:29:37.400Z,7.21
2023-02-17T00:35:41.196Z,7.11
2023-02-17T00:41:44.901Z,6.94
2023-02-17T00:47:48.044Z,6.88
2023-02-17T00:53:52.638Z,6.91
2023-02-17T00:59:59.260Z,6.94
2023-02-17T01:06:07.954Z,7.04
2023-02-17T01:12:12.458Z,7.00
2023-02-17T01:18:19.378Z,6.97
2023-02-17T01:24:21.594Z,7.08
2023-02-17T01:30:24.331Z,7.33
2023-02-17T01:36:27.407Z,7.32
2023-02-17T01:42:30.438Z,7.51
2023-02-17T01:48:41.519Z,7.38
2023-02-17T01:54:48.942Z,7.41
2023-02-17T02:00:53.636Z,7.37
2023-02-17T02:06:56.084Z,7.10
2023-02-17T02:12:58.238Z,7.04
2023-02-17T02:19:17.205Z,7.00
2023-02-17T02:25:45.140Z,7.21
2023-02-17T02:31:56.245Z,6.98
2023-02-17T02:38:16.854Z,7.05
2023-02-17T02:44:21.388Z,7.19
2023-02-17T02:50:45.835Z,7.07
2023-02-17T02:57:03.310Z,7.09
2023-02-17T03:03:28.996Z,7.05
2023-02-17T03:09:32.172Z,6.96
2023-02-17T03:15:35.659Z,6.78
2023-02-17T03:21:43.759Z,6.87
2023-02-17T03:27:46.018Z,7.10
2023-02-17T03:33:50.060Z,7.11
2023-02-17T03:39:52.349Z,7.17
2023-02-17T03:45:55.114Z,7.31
2023-02-17T03:51:58.479Z,7.13
2023-02-17T03:58:00.747Z,7.24
2023-02-17T04:04:03.775Z,7.09
2023-02-17T04:10:09.516Z,7.00
2023-02-17T04:16:13.789Z,6.91
2023-02-17T04:22:15.887Z,6.84
2023-02-17T04:28:21.551Z,6.79
2023-02-17T04:34:23.752Z,6.56
2023-02-17T04:40:29.427Z,6.56
2023-02-17T04:46:31.568Z,6.13
2023-02-17T04:52:34.000Z,5.93
2023-02-17T04:58:36.512Z,5.79
2023-02-17T05:18:22.422Z,6.12
2023-02-17T05:25:10.194Z,6.03
2023-02-17T05:39:07.002Z,6.01
2023-02-17T05:46:13.426Z,5.96
2023-02-17T05:53:16.113Z,6.15
2023-02-17T06:12:45.996Z,6.26
2023-02-17T06:31:54.361Z,6.36
2023-02-17T06:38:12.875Z,6.46
2023-02-17T06:44:19.027Z,6.86
2023-02-17T06:50:37.948Z,7.21
2023-02-17T06:56:48.780Z,7.03
2023-02-17T07:02:53.051Z,6.77
2023-02-17T07:08:57.924Z,6.94
2023-02-17T07:15:06.556Z,6.65
2023-02-17T07:28:09.179Z,6.59
2023-02-17T07:35:31.471Z,7.27
2023-02-17T08:02:28.303Z,8.78
2023-02-17T08:09:22.753Z,9.36
2023-02-17T08:15:55.846Z,9.78
2023-02-17T08:22:13.053Z,10.04
2023-02-17T08:35:42.410Z,10.54
2023-02-17T08:55:16.276Z,10.40
2023-02-17T09:01:26.516Z,10.75
2023-02-17T09:21:28.109Z,11.51
2023-02-17T09:42:17.503Z,12.34
2023-02-17T09:48:55.770Z,12.58
2023-02-17T10:10:01.467Z,12.88
2023-02-17T10:30:17.243Z,12.89
2023-02-17T10:51:32.977Z,13.67
2023-02-17T11:12:58.404Z,13.99
2023-02-17T11:20:10.864Z,14.32
2023-02-17T11:54:54.369Z,15.36
2023-02-17T12:01:56.925Z,15.73
2023-02-17T12:08:58.729Z,15.57
2023-02-17T12:22:33.736Z,15.52
2023-02-17T12:37:10.985Z,15.02
2023-02-17T12:43:53.291Z,14.84
2023-02-17T13:05:18.823Z,15.90
2023-02-17T13:11:53.629Z,15.71
2023-02-17T13:25:35.687Z,15.59
2023-02-17T13:32:29.344Z,15.63
2023-02-17T13:39:53.428Z,15.52
2023-02-17T13:46:13.724Z,15.78
2023-02-17T13:52:45.288Z,16.42
2023-02-17T13:59:01.244Z,15.46
2023-02-17T14:05:46.328Z,15.15
2023-02-17T14:11:56.701Z,14.92
2023-02-17T14:18:18.423Z,14.86
2023-02-17T14:24:47.282Z,15.01
2023-02-17T14:31:01.208Z,14.99
2023-02-17T14:43:58.351Z,15.25
2023-02-17T14:50:38.986Z,14.91
2023-02-17T15:04:42.549Z,15.25
2023-02-17T15:11:35.105Z,15.09
2023-02-17T15:17:52.580Z,15.01
2023-02-17T15:24:40.118Z,15.06
2023-02-17T15:31:35.741Z,15.00
2023-02-17T15:37:44.324Z,14.82
2023-02-17T16:24:17.149Z,14.42
2023-02-17T16:43:45.077Z,14.21
2023-02-17T16:49:54.183Z,14.17
2023-02-17T16:56:22.472Z,14.25
2023-02-17T17:02:35.744Z,14.32
2023-02-17T17:15:12.638Z,14.06
2023-02-17T17:21:30.786Z,14.08
2023-02-17T17:27:49.544Z,14.16
2023-02-17T17:34:04.592Z,14.06
2023-02-17T17:41:00.419Z,14.00
2023-02-17T17:54:20.949Z,13.89
2023-02-17T18:00:46.547Z,13.79
2023-02-17T18:13:44.630Z,13.34
2023-02-17T18:20:31.330Z,13.39
2023-02-17T18:33:30.067Z,13.08
2023-02-17T18:53:46.973Z,12.92
2023-02-17T19:00:11.257Z,12.87
2023-02-17T19:06:29.364Z,12.46
2023-02-17T19:12:50.653Z,12.28
2023-02-17T19:19:48.470Z,12.27
2023-02-17T19:26:35.906Z,12.31
2023-02-17T19:33:03.906Z,12.22
2023-02-17T19:40:08.594Z,12.02
2023-02-17T20:00:08.417Z,11.65
2023-02-17T20:13:08.840Z,11.47
2023-02-17T20:19:29.496Z,11.33
2023-02-17T20:26:16.712Z,11.38
2023-02-17T20:32:46.345Z,11.39
2023-02-17T20:38:53.186Z,11.34
2023-02-17T20:45:36.947Z,11.16
2023-02-17T20:52:03.402Z,10.86
2023-02-17T20:58:35.261Z,10.90
2023-02-17T21:04:43.160Z,10.84
2023-02-17T21:11:04.562Z,10.68
2023-02-17T21:17:15.666Z,10.65
2023-02-17T21:23:53.061Z,10.53
2023-02-17T21:30:31.138Z,10.58
2023-02-17T21:36:46.596Z,10.79
2023-02-17T21:43:20.198Z,10.80
2023-02-17T21:49:39.657Z,10.80
2023-02-17T21:56:24.498Z,10.63
2023-02-17T22:03:01.024Z,10.74
2023-02-17T22:09:38.011Z,10.64
2023-02-17T22:16:05.737Z,10.11
2023-02-17T22:22:25.622Z,10.44
2023-02-17T22:28:58.720Z,10.33
2023-02-17T22:35:18.242Z,10.50
2023-02-17T22:41:30.028Z,10.21
2023-02-17T23:06:47.239Z,10.52
2023-02-17T23:19:16.769Z,9.99
2023-02-17T23:25:34.919Z,9.97
2023-02-17T23:44:59.101Z,9.77
2023-02-17T23:51:07.736Z,9.73
2023-02-17T23:57:13.774Z,9.81
